createdAt,value
2018-03-25T00:01:49.449Z,3.70
2018-03-25T00:04:17.357Z,3.70
2018-03-25T00:06:46.125Z,3.70
2018-03-25T00:09:14.043Z,3.60
2018-03-25T00:11:42.053Z,3.70
2018-03-25T00:14:09.965Z,3.70
2018-03-25T00:16:37.822Z,3.70
2018-03-25T00:19:06.509Z,3.70
2018-03-25T00:21:35.195Z,3.60
2018-03-25T00:24:03.137Z,3.60
2018-03-25T00:26:31.172Z,3.70
2018-03-25T00:28:59.074Z,3.70
2018-03-25T00:31:27.005Z,3.60
2018-03-25T00:33:55.048Z,3.60
2018-03-25T00:36:22.884Z,3.60
2018-03-25T00:38:50.872Z,3.60
2018-03-25T00:41:19.670Z,3.60
2018-03-25T00:43:48.377Z,3.60
2018-03-25T00:46:16.340Z,3.60
2018-03-25T00:48:44.266Z,3.60
2018-03-25T00:51:12.129Z,3.60
2018-03-25T00:53:40.046Z,3.70
2018-03-25T00:56:08.065Z,3.60
2018-03-25T00:58:36.853Z,3.60
2018-03-25T01:01:04.723Z,3.60
2018-03-25T01:03:32.698Z,3.60
2018-03-25T01:06:00.659Z,3.60
2018-03-25T01:08:28.482Z,3.60
2018-03-25T01:10:56.477Z,3.60
2018-03-25T01:13:24.374Z,3.50
2018-03-25T01:16:04.101Z,3.50
2018-03-25T01:18:32.040Z,3.60
2018-03-25T01:20:59.902Z,3.50
2018-03-25T01:23:27.856Z,3.50
2018-03-25T01:25:56.484Z,3.50
2018-03-25T01:28:24.368Z,3.50
2018-03-25T01:30:52.408Z,3.50
2018-03-25T01:33:20.334Z,3.40
2018-03-25T01:35:48.953Z,3.40
2018-03-25T01:38:16.906Z,3.40
2018-03-25T01:40:45.540Z,3.30
2018-03-25T01:43:13.429Z,3.30
2018-03-25T01:45:41.342Z,3.30
2018-03-25T01:48:09.210Z,3.30
2018-03-25T01:50:37.173Z,3.20
2018-03-25T01:53:05.084Z,3.20
2018-03-25T01:55:33.020Z,3.20
2018-03-25T01:58:00.945Z,3.20
2018-03-25T02:00:28.855Z,3.20
2018-03-25T02:02:56.748Z,3.20
2018-03-25T02:05:25.384Z,3.20
2018-03-25T02:07:54.222Z,3.10
2018-03-25T02:10:22.053Z,3.10
2018-03-25T02:12:49.937Z,3.10
2018-03-25T02:15:17.910Z,3.10
2018-03-25T02:17:45.898Z,3.10
2018-03-25T02:20:13.706Z,3.10
2018-03-25T02:22:42.473Z,3.00
2018-03-25T02:25:10.406Z,3.00
2018-03-25T02:27:38.280Z,3.00
2018-03-25T02:30:06.202Z,3.00
2018-03-25T02:32:34.861Z,3.10
2018-03-25T02:35:02.730Z,3.00
2018-03-25T02:37:30.651Z,3.10
2018-03-25T02:39:58.532Z,3.00
2018-03-25T02:42:26.380Z,3.00
2018-03-25T02:44:54.291Z,3.00
2018-03-25T02:47:22.246Z,3.00
2018-03-25T02:49:50.165Z,3.00
2018-03-25T02:52:18.822Z,2.90
2018-03-25T02:54:46.772Z,2.90
2018-03-25T02:57:14.729Z,2.90
2018-03-25T02:59:42.667Z,2.90
2018-03-25T03:02:10.504Z,2.90
2018-03-25T03:04:39.206Z,2.80
2018-03-25T03:07:07.928Z,2.80
2018-03-25T03:09:35.739Z,2.80
2018-03-25T03:12:03.621Z,2.80
2018-03-25T03:14:31.577Z,2.70
2018-03-25T03:16:59.497Z,2.70
2018-03-25T03:19:27.633Z,2.70
2018-03-25T03:21:56.412Z,2.60
2018-03-25T03:24:25.083Z,2.60
2018-03-25T03:26:52.972Z,2.60
2018-03-25T03:29:21.589Z,2.60
2018-03-25T03:31:49.485Z,2.60
2018-03-25T03:34:17.370Z,2.60
2018-03-25T03:36:45.283Z,2.60
2018-03-25T03:39:13.183Z,2.50
2018-03-25T03:41:41.090Z,2.50
2018-03-25T03:44:09.787Z,2.40
2018-03-25T03:46:38.397Z,2.40
2018-03-25T03:49:06.284Z,2.40
2018-03-25T03:51:34.309Z,2.40
2018-03-25T03:54:02.858Z,2.30
2018-03-25T03:56:30.724Z,2.30
2018-03-25T03:58:58.613Z,2.30
2018-03-25T04:01:27.281Z,2.20
2018-03-25T04:03:55.141Z,2.20
2018-03-25T04:06:23.065Z,2.20
2018-03-25T04:08:51.024Z,2.20
2018-03-25T04:11:18.861Z,2.20
2018-03-25T04:13:46.806Z,2.20
2018-03-25T04:16:14.706Z,2.10
2018-03-25T04:18:43.341Z,2.10
2018-03-25T04:21:11.337Z,2.10
2018-03-25T04:23:39.196Z,2.10
2018-03-25T04:26:07.037Z,2.10
2018-03-25T04:28:34.959Z,2.10
2018-03-25T04:31:03.700Z,2.10
2018-03-25T04:33:31.647Z,2.00
2018-03-25T04:35:59.588Z,2.00
2018-03-25T04:38:28.194Z,1.90
2018-03-25T04:40:56.113Z,1.90
2018-03-25T04:43:24.121Z,1.90
2018-03-25T04:45:52.825Z,1.90
2018-03-25T04:48:20.716Z,1.90
2018-03-25T04:50:48.739Z,1.90
2018-03-25T04:53:16.605Z,1.90
2018-03-25T04:55:45.349Z,1.90
2018-03-25T04:58:13.284Z,1.80
2018-03-25T05:00:41.138Z,1.90
2018-03-25T05:03:09.721Z,1.80
2018-03-25T05:05:38.441Z,1.90
2018-03-25T05:08:06.306Z,1.80
2018-03-25T05:10:34.403Z,1.80
2018-03-25T05:13:02.385Z,1.80
2018-03-25T05:15:30.333Z,1.70
2018-03-25T05:17:58.437Z,1.70
2018-03-25T05:20:27.224Z,1.60
2018-03-25T05:22:55.114Z,1.60
2018-03-25T05:25:23.803Z,1.50
2018-03-25T05:27:52.540Z,1.50
2018-03-25T05:30:20.385Z,1.50
2018-03-25T05:32:48.180Z,1.50
2018-03-25T05:35:16.081Z,1.50
2018-03-25T05:37:44.741Z,1.50
2018-03-25T05:40:12.588Z,1.50
2018-03-25T05:42:40.533Z,1.50
2018-03-25T05:45:08.378Z,1.40
2018-03-25T05:47:37.000Z,1.40
2018-03-25T05:50:04.924Z,1.40
2018-03-25T05:52:33.563Z,1.50
2018-03-25T05:55:01.620Z,1.50
2018-03-25T05:57:29.667Z,1.40
2018-03-25T05:59:57.653Z,1.40
2018-03-25T06:02:25.589Z,1.40
2018-03-25T06:04:53.564Z,1.40
2018-03-25T06:07:22.177Z,1.30
2018-03-25T06:09:50.241Z,1.30
2018-03-25T06:12:18.138Z,1.30
2018-03-25T06:14:46.053Z,1.20
2018-03-25T06:17:14.849Z,1.10
2018-03-25T06:19:42.833Z,1.10
2018-03-25T06:22:10.700Z,1.00
2018-03-25T06:24:38.612Z,1.10
2018-03-25T06:27:06.585Z,1.20
2018-03-25T06:29:34.398Z,1.20
2018-03-25T06:32:02.426Z,1.40
2018-03-25T06:34:30.414Z,1.40
2018-03-25T06:36:59.045Z,1.50
2018-03-25T06:39:26.847Z,1.50
2018-03-25T06:41:54.836Z,1.50
2018-03-25T06:44:22.689Z,1.70
2018-03-25T06:46:50.620Z,1.70
2018-03-25T06:52:43.964Z,1.90
2018-03-25T06:55:11.864Z,1.90
2018-03-25T06:57:39.852Z,1.90
2018-03-25T07:00:07.709Z,2.00
2018-03-25T07:02:35.585Z,2.10
2018-03-25T07:05:03.526Z,2.30
2018-03-25T07:07:31.500Z,2.40
2018-03-25T07:09:59.475Z,2.50
2018-03-25T07:12:27.286Z,2.60
2018-03-25T07:14:55.945Z,2.80
2018-03-25T07:17:23.879Z,2.80
2018-03-25T07:19:51.803Z,2.90
2018-03-25T07:22:19.764Z,2.90
2018-03-25T07:24:47.770Z,3.10
2018-03-25T07:27:15.614Z,3.10
2018-03-25T07:29:43.634Z,3.20
2018-03-25T07:32:11.490Z,3.30
2018-03-25T07:34:39.434Z,3.40
2018-03-25T07:37:08.213Z,3.60
2018-03-25T07:39:36.131Z,3.50
2018-03-25T07:42:04.042Z,3.60
2018-03-25T07:44:31.924Z,3.70
2018-03-25T07:46:59.889Z,3.80
2018-03-25T07:49:28.559Z,3.90
2018-03-25T07:51:56.698Z,3.90
2018-03-25T07:54:24.634Z,4.00
2018-03-25T07:56:52.657Z,4.10
2018-03-25T07:59:20.616Z,4.20
2018-03-25T08:01:48.687Z,4.20
2018-03-25T08:04:16.518Z,4.30
2018-03-25T08:06:44.569Z,4.30
2018-03-25T08:09:13.367Z,4.50
2018-03-25T08:11:41.326Z,4.50
2018-03-25T08:14:10.086Z,4.60
2018-03-25T08:16:37.882Z,4.60
2018-03-25T08:19:06.495Z,4.70
2018-03-25T08:21:34.470Z,4.70
2018-03-25T08:24:02.545Z,4.80
2018-03-25T08:26:30.416Z,4.90
2018-03-25T08:28:58.474Z,5.00
2018-03-25T08:31:26.349Z,5.00
2018-03-25T08:33:54.316Z,5.10
2018-03-25T08:36:22.333Z,5.20
2018-03-25T08:38:51.072Z,5.40
2018-03-25T08:41:18.977Z,5.30
2018-03-25T08:43:47.117Z,5.50
2018-03-25T08:46:15.114Z,5.50
2018-03-25T08:48:43.057Z,5.60
2018-03-25T08:51:11.002Z,5.70
2018-03-25T08:53:38.874Z,5.80
2018-03-25T08:56:07.043Z,5.90
2018-03-25T08:58:34.928Z,5.90
2018-03-25T09:01:02.846Z,6.10
2018-03-25T09:03:31.538Z,6.20
2018-03-25T09:06:00.461Z,6.30
2018-03-25T09:08:28.372Z,6.30
2018-03-25T09:10:56.291Z,6.40
2018-03-25T09:13:24.266Z,6.50
2018-03-25T09:15:52.231Z,6.50
2018-03-25T09:18:20.187Z,6.60
2018-03-25T09:20:48.177Z,6.80
2018-03-25T09:23:16.106Z,6.90
2018-03-25T09:25:43.955Z,7.00
2018-03-25T09:28:11.918Z,7.00
2018-03-25T09:30:39.905Z,7.10
2018-03-25T09:33:07.740Z,7.10
2018-03-25T09:35:35.761Z,7.10
2018-03-25T09:38:03.692Z,7.10
2018-03-25T09:40:31.582Z,7.10
2018-03-25T09:42:59.587Z,7.10
2018-03-25T09:45:28.305Z,7.20
2018-03-25T09:47:56.110Z,7.20
2018-03-25T09:50:24.810Z,7.20
2018-03-25T09:52:52.659Z,7.20
2018-03-25T09:55:21.259Z,7.50
2018-03-25T09:57:49.178Z,7.50
2018-03-25T10:03:23.629Z,7.90
2018-03-25T10:05:51.638Z,8.00
2018-03-25T10:08:20.240Z,8.10
2018-03-25T10:10:48.179Z,8.10
2018-03-25T10:13:16.908Z,8.20
2018-03-25T10:15:44.745Z,8.20
2018-03-25T10:18:13.470Z,8.40
2018-03-25T10:20:41.385Z,8.40
2018-03-25T10:23:09.300Z,8.60
2018-03-25T10:25:37.305Z,8.70
2018-03-25T10:28:05.151Z,8.80
2018-03-25T10:30:33.129Z,9.00
2018-03-25T10:33:01.043Z,9.00
2018-03-25T10:35:29.682Z,9.60
2018-03-25T10:37:57.641Z,9.50
2018-03-25T10:40:25.597Z,9.90
2018-03-25T10:42:53.502Z,10.10
2018-03-25T10:45:21.476Z,10.40
2018-03-25T10:47:49.545Z,10.70
2018-03-25T10:50:17.446Z,11.10
2018-03-25T10:52:45.408Z,11.40
2018-03-25T10:55:14.124Z,11.90
2018-03-25T10:57:42.002Z,11.90
2018-03-25T11:00:10.032Z,12.10
2018-03-25T11:02:38.056Z,12.30
2018-03-25T11:05:05.916Z,12.40
2018-03-25T11:07:33.802Z,12.60
2018-03-25T11:10:01.713Z,12.70
2018-03-25T11:12:29.654Z,12.90
2018-03-25T11:14:58.338Z,12.90
2018-03-25T11:17:26.407Z,12.90
2018-03-25T11:19:54.314Z,12.90
2018-03-25T11:22:22.292Z,12.90
2018-03-25T11:24:50.282Z,13.00
2018-03-25T11:27:18.235Z,13.00
2018-03-25T11:29:46.124Z,13.20
2018-03-25T11:32:14.138Z,13.30
2018-03-25T11:34:42.875Z,13.70
2018-03-25T11:37:11.245Z,13.70
2018-03-25T11:39:39.187Z,13.80
2018-03-25T11:42:07.883Z,14.10
2018-03-25T11:44:35.833Z,14.10
2018-03-25T11:47:04.667Z,14.40
2018-03-25T11:49:32.488Z,14.40
2018-03-25T11:52:00.351Z,14.50
2018-03-25T11:54:29.078Z,14.90
2018-03-25T11:56:57.005Z,14.90
2018-03-25T11:59:25.849Z,15.10
2018-03-25T12:01:53.863Z,15.10
2018-03-25T12:04:22.457Z,15.20
2018-03-25T12:06:51.187Z,15.20
2018-03-25T12:09:19.185Z,15.20
2018-03-25T12:11:47.128Z,15.20
2018-03-25T12:14:15.027Z,15.30
2018-03-25T12:16:42.999Z,15.30
2018-03-25T12:19:11.020Z,15.30
2018-03-25T12:21:39.004Z,15.50
2018-03-25T12:24:07.154Z,15.50
2018-03-25T12:26:35.166Z,15.60
2018-03-25T12:29:03.070Z,15.50
2018-03-25T12:31:31.790Z,15.60
2018-03-25T12:33:59.663Z,15.50
2018-03-25T12:36:27.508Z,15.70
2018-03-25T12:38:55.581Z,15.60
2018-03-25T12:41:23.575Z,15.60
2018-03-25T12:43:51.444Z,15.60
2018-03-25T12:46:19.502Z,15.50
2018-03-25T12:48:47.324Z,15.70
2018-03-25T12:51:15.271Z,15.80
2018-03-25T12:53:43.221Z,15.90
2018-03-25T12:56:11.134Z,16.00
2018-03-25T12:58:39.894Z,15.80
2018-03-25T13:01:07.804Z,15.80
2018-03-25T13:03:35.703Z,15.80
2018-03-25T13:06:03.594Z,15.70
2018-03-25T13:08:31.462Z,15.60
2018-03-25T13:10:59.404Z,15.60
2018-03-25T13:13:27.328Z,15.70
2018-03-25T13:15:56.106Z,15.70
2018-03-25T13:18:24.014Z,15.70
2018-03-25T13:20:51.873Z,15.80
2018-03-25T13:23:19.962Z,15.90
2018-03-25T13:25:47.936Z,15.90
2018-03-25T13:28:15.778Z,16.10
2018-03-25T13:30:43.764Z,16.30
2018-03-25T13:33:11.670Z,16.60
2018-03-25T13:35:39.625Z,17.00
2018-03-25T13:38:07.572Z,17.60
2018-03-25T13:40:35.454Z,18.30
2018-03-25T13:43:03.382Z,19.80
2018-03-25T13:45:32.099Z,22.00
2018-03-25T13:47:59.944Z,22.00
2018-03-25T13:50:27.869Z,22.70
2018-03-25T13:52:55.831Z,23.30
2018-03-25T13:55:23.783Z,23.80
2018-03-25T13:57:51.663Z,24.20
2018-03-25T14:00:19.561Z,24.10
2018-03-25T14:02:48.367Z,23.20
2018-03-25T14:05:16.217Z,23.20
2018-03-25T14:07:44.259Z,22.40
2018-03-25T14:10:12.193Z,21.90
2018-03-25T14:12:40.073Z,21.70
2018-03-25T14:15:08.830Z,22.60
2018-03-25T14:17:36.758Z,22.60
2018-03-25T14:20:04.657Z,24.20
2018-03-25T14:22:33.426Z,26.60
2018-03-25T14:25:01.449Z,26.50
2018-03-25T14:27:29.319Z,27.30
2018-03-25T14:29:57.322Z,28.10
2018-03-25T14:32:26.021Z,28.90
2018-03-25T14:34:53.925Z,28.80
2018-03-25T14:37:22.487Z,28.70
2018-03-25T14:39:50.614Z,27.80
2018-03-25T14:42:18.550Z,28.50
2018-03-25T14:44:46.580Z,29.30
2018-03-25T14:47:14.501Z,29.80
2018-03-25T14:49:42.372Z,30.30
2018-03-25T14:52:10.282Z,30.20
2018-03-25T14:54:38.210Z,30.50
2018-03-25T14:57:06.051Z,30.40
2018-03-25T14:59:34.050Z,30.50
2018-03-25T15:02:02.025Z,30.10
2018-03-25T15:04:29.820Z,29.10
2018-03-25T15:06:57.886Z,29.00
2018-03-25T15:09:25.885Z,29.30
2018-03-25T15:11:54.654Z,29.60
2018-03-25T15:14:22.736Z,29.60
2018-03-25T15:16:51.466Z,29.90
2018-03-25T15:19:19.358Z,29.90
2018-03-25T15:21:47.375Z,29.80
2018-03-25T15:24:15.933Z,28.90
2018-03-25T15:26:44.048Z,28.90
2018-03-25T15:29:12.058Z,27.40
2018-03-25T15:31:39.976Z,26.60
2018-03-25T15:34:07.864Z,27.00
2018-03-25T15:36:35.786Z,27.10
2018-03-25T15:39:03.737Z,27.30
2018-03-25T15:41:31.557Z,27.30
2018-03-25T15:43:59.462Z,27.20
2018-03-25T15:46:27.342Z,27.10
2018-03-25T15:48:55.312Z,26.90
2018-03-25T15:51:23.230Z,26.50
2018-03-25T15:53:51.244Z,25.40
2018-03-25T15:56:19.105Z,25.20
2018-03-25T15:58:47.166Z,25.20
2018-03-25T16:01:15.110Z,25.20
2018-03-25T16:03:43.117Z,25.20
2018-03-25T16:06:11.061Z,25.10
2018-03-25T16:08:38.932Z,24.90
2018-03-25T16:11:06.854Z,24.50
2018-03-25T16:13:35.625Z,23.50
2018-03-25T16:16:03.484Z,23.50
2018-03-25T16:18:31.434Z,22.60
2018-03-25T16:20:59.460Z,20.50
2018-03-25T16:23:28.058Z,17.00
2018-03-25T16:25:56.066Z,17.00
2018-03-25T16:28:24.016Z,15.90
2018-03-25T16:30:51.920Z,15.00
2018-03-25T16:33:19.807Z,14.30
2018-03-25T16:35:47.739Z,13.70
2018-03-25T16:38:15.646Z,13.30
2018-03-25T16:40:44.214Z,12.70
2018-03-25T16:43:12.169Z,12.60
2018-03-25T16:45:40.091Z,12.30
2018-03-25T16:48:07.953Z,12.10
2018-03-25T16:50:35.865Z,11.90
2018-03-25T16:53:03.781Z,11.70
2018-03-25T16:55:31.738Z,11.50
2018-03-25T16:58:01.505Z,11.00
2018-03-25T17:00:29.365Z,11.00
2018-03-25T17:02:57.347Z,10.80
2018-03-25T17:05:25.377Z,10.60
2018-03-25T17:07:53.260Z,10.60
2018-03-25T17:10:21.294Z,10.40
2018-03-25T17:12:50.021Z,10.10
2018-03-25T17:15:17.991Z,10.10
2018-03-25T17:17:46.750Z,9.80
2018-03-25T17:20:15.401Z,9.70
2018-03-25T17:22:43.644Z,9.70
2018-03-25T17:25:11.521Z,9.50
2018-03-25T17:27:39.524Z,9.40
2018-03-25T17:30:08.215Z,9.30
2018-03-25T17:32:36.944Z,9.20
2018-03-25T17:35:04.922Z,9.20
2018-03-25T17:37:33.548Z,9.00
2018-03-25T17:40:02.048Z,9.00
2018-03-25T17:42:29.970Z,8.90
2018-03-25T17:44:59.879Z,8.80
2018-03-25T17:47:28.562Z,8.70
2018-03-25T17:50:00.012Z,8.70
2018-03-25T17:52:29.017Z,8.60
2018-03-25T17:54:56.957Z,8.50
2018-03-25T17:57:24.943Z,8.50
2018-03-25T17:59:52.940Z,8.40
2018-03-25T18:02:20.829Z,8.30
2018-03-25T18:04:49.650Z,8.20
2018-03-25T18:07:17.555Z,8.20
2018-03-25T18:09:45.551Z,8.10
2018-03-25T18:12:13.554Z,8.10
2018-03-25T18:14:41.485Z,8.00
2018-03-25T18:17:33.458Z,7.90
2018-03-25T18:19:37.422Z,7.90
2018-03-25T18:22:05.427Z,7.90
2018-03-25T18:24:33.274Z,7.80
2018-03-25T18:27:02.152Z,7.80
2018-03-25T18:29:30.035Z,7.80
2018-03-25T18:31:58.756Z,7.70
2018-03-25T18:34:26.737Z,7.60
2018-03-25T18:36:54.644Z,7.60
2018-03-25T18:39:22.550Z,7.60
2018-03-25T18:41:50.617Z,7.50
2018-03-25T18:44:18.482Z,7.40
2018-03-25T18:46:46.408Z,7.40
2018-03-25T18:49:14.395Z,7.40
2018-03-25T18:51:43.125Z,7.40
2018-03-25T18:54:11.024Z,7.30
2018-03-25T18:56:38.919Z,7.30
2018-03-25T18:59:07.680Z,7.20
2018-03-25T19:01:35.771Z,7.20
2018-03-25T19:04:03.747Z,7.20
2018-03-25T19:06:33.705Z,7.10
2018-03-25T19:09:01.702Z,7.10
2018-03-25T19:11:29.789Z,7.00
2018-03-25T19:13:58.063Z,7.00
2018-03-25T19:16:27.039Z,7.00
2018-03-25T19:18:55.451Z,6.90
2018-03-25T19:21:24.266Z,6.80
2018-03-25T19:23:52.605Z,6.80
2018-03-25T19:26:20.881Z,6.80
2018-03-25T19:28:49.762Z,6.70
2018-03-25T19:31:18.998Z,6.70
2018-03-25T19:33:47.525Z,6.60
2018-03-25T19:36:15.445Z,6.60
2018-03-25T19:38:44.652Z,6.50
2018-03-25T19:41:13.345Z,6.50
2018-03-25T19:43:42.111Z,6.50
2018-03-25T19:46:10.874Z,6.40
2018-03-25T19:48:38.878Z,6.40
2018-03-25T19:51:07.498Z,6.30
2018-03-25T19:53:36.602Z,6.30
2018-03-25T19:56:04.739Z,6.30
2018-03-25T19:58:33.382Z,6.20
2018-03-25T20:01:01.234Z,6.30
2018-03-25T20:03:29.201Z,6.20
2018-03-25T20:05:57.079Z,6.20
2018-03-25T20:08:25.236Z,6.20
2018-03-25T20:10:53.283Z,6.20
2018-03-25T20:13:21.198Z,6.10
2018-03-25T20:15:49.981Z,6.10
2018-03-25T20:18:17.970Z,6.10
2018-03-25T20:20:45.823Z,6.10
2018-03-25T20:23:13.688Z,6.00
2018-03-25T20:25:41.603Z,6.00
2018-03-25T20:28:09.497Z,5.90
2018-03-25T20:30:37.886Z,5.90
2018-03-25T20:33:05.804Z,5.90
2018-03-25T20:35:33.860Z,5.90
2018-03-25T20:38:01.642Z,5.80
2018-03-25T20:40:30.702Z,5.80
2018-03-25T20:42:58.706Z,5.80
2018-03-25T20:45:27.414Z,5.80
2018-03-25T20:47:55.607Z,5.70
2018-03-25T20:50:23.700Z,5.80
2018-03-25T20:52:51.774Z,5.70
2018-03-25T20:55:19.820Z,5.80
2018-03-25T20:57:47.751Z,5.70
2018-03-25T21:00:16.376Z,5.60
2018-03-25T21:02:44.484Z,5.60
2018-03-25T21:05:12.451Z,5.60
2018-03-25T21:07:41.138Z,5.60
2018-03-25T21:10:10.010Z,5.60
2018-03-25T21:12:37.995Z,5.50
2018-03-25T21:15:06.481Z,5.50
2018-03-25T21:17:35.478Z,5.40
2018-03-25T21:20:03.403Z,5.40
2018-03-25T21:22:31.466Z,5.30
2018-03-25T21:24:59.385Z,5.30
2018-03-25T21:27:28.089Z,5.20
2018-03-25T21:29:56.773Z,5.20
2018-03-25T21:32:25.838Z,5.20
2018-03-25T21:34:54.844Z,5.10
2018-03-25T21:37:23.666Z,5.10
2018-03-25T21:39:51.618Z,5.10
2018-03-25T21:42:19.894Z,5.10
2018-03-25T21:44:48.834Z,5.00
2018-03-25T21:47:16.858Z,5.00
2018-03-25T21:49:45.723Z,5.00
2018-03-25T21:52:13.688Z,4.90
2018-03-25T21:54:42.249Z,4.90
2018-03-25T21:57:10.412Z,4.90
2018-03-25T21:59:38.315Z,4.90
2018-03-25T22:02:07.050Z,4.90
2018-03-25T22:04:35.043Z,4.90
2018-03-25T22:07:02.941Z,4.90
2018-03-25T22:09:30.821Z,4.80
2018-03-25T22:11:58.724Z,4.80
2018-03-25T22:14:26.837Z,4.80
2018-03-25T22:16:54.816Z,4.80
2018-03-25T22:19:22.737Z,4.80
2018-03-25T22:21:50.625Z,4.80
2018-03-25T22:24:18.704Z,4.70
2018-03-25T22:26:46.767Z,4.70
2018-03-25T22:29:14.640Z,4.70
2018-03-25T22:31:43.156Z,4.70
2018-03-25T22:34:11.209Z,4.70
2018-03-25T22:36:39.183Z,4.70
2018-03-25T22:39:07.356Z,4.60
2018-03-25T22:41:35.431Z,4.60
2018-03-25T22:44:03.601Z,4.60
2018-03-25T22:46:31.677Z,4.60
2018-03-25T22:48:59.848Z,4.50
2018-03-25T22:51:28.317Z,4.50
2018-03-25T22:53:56.293Z,4.40
2018-03-25T22:56:25.292Z,4.40
2018-03-25T22:58:53.355Z,4.40
2018-03-25T23:01:21.545Z,4.30
2018-03-25T23:03:49.698Z,4.20
2018-03-25T23:06:17.683Z,4.20
2018-03-25T23:08:45.652Z,4.20
2018-03-25T23:11:13.518Z,4.10
2018-03-25T23:13:41.486Z,4.10
2018-03-25T23:16:09.536Z,4.00
2018-03-25T23:18:37.632Z,4.00
2018-03-25T23:21:05.562Z,3.90
2018-03-25T23:23:33.670Z,3.90
2018-03-25T23:26:01.522Z,3.90
2018-03-25T23:28:29.350Z,3.80
2018-03-25T23:30:57.740Z,3.80
2018-03-25T23:33:25.751Z,3.80
2018-03-25T23:35:53.797Z,3.80
2018-03-25T23:38:21.813Z,3.80
2018-03-25T23:40:49.734Z,3.80
2018-03-25T23:43:18.125Z,3.70
2018-03-25T23:45:46.305Z,3.70
2018-03-25T23:48:14.190Z,3.70
2018-03-25T23:50:42.485Z,3.70
2018-03-25T23:53:11.251Z,3.60
2018-03-25T23:55:39.323Z,3.60
2018-03-25T23:58:07.216Z,3.60
